AXM5116 WMKK-WBKK
Flight info
| Callsign | AXM5116 |
|---|---|
| Flight time | 2h 15m |
| Altitude | 35000 |
| Route | KIMAT3F KIMAT Y344 VPK M758 VIDIP DCT EGENU |
| Aircraft | A320/M-SDE3FGHIRWY/LB1 |
Departure
| Time | 2026-04-30 10:36 |
|---|---|
| Airport | Kuala Lumpur International Airport (WMKK) |
Arrival
| Time | 2026-04-30 12:52 |
|---|---|
| Airport | Kota Kinabalu International Airport (WBKK) |
| Time | Latitude | Longitude | Altitude | Speed | Heading |
|---|---|---|---|---|---|
| 2026-04-30 10:00 | 2.73996 | 101.68417 | 42 ft | 0 kts | 326° |
| 2026-04-30 10:04 | 2.73996 | 101.68418 | 42 ft | 0 kts | 326° |
| 2026-04-30 10:25 | 2.73989 | 101.68422 | 42 ft | 4 kts | 326° |
| 2026-04-30 10:25 | 2.73966 | 101.68437 | 40 ft | 4 kts | 326° |
| 2026-04-30 10:25 | 2.73945 | 101.68452 | 39 ft | 4 kts | 315° |
| 2026-04-30 10:26 | 2.73930 | 101.68473 | 39 ft | 4 kts | 277° |
| 2026-04-30 10:26 | 2.73932 | 101.68492 | 40 ft | 1 kts | 236° |
| 2026-04-30 10:26 | 2.73935 | 101.68495 | 38 ft | 0 kts | 236° |
| 2026-04-30 10:28 | 2.73933 | 101.68493 | 40 ft | 2 kts | 236° |
| 2026-04-30 10:28 | 2.73910 | 101.68458 | 39 ft | 10 kts | 236° |
| 2026-04-30 10:28 | 2.73869 | 101.68398 | 42 ft | 10 kts | 236° |
| 2026-04-30 10:29 | 2.73835 | 101.68348 | 42 ft | 9 kts | 236° |
| 2026-04-30 10:29 | 2.73792 | 101.68283 | 42 ft | 13 kts | 236° |
| 2026-04-30 10:29 | 2.73742 | 101.68210 | 41 ft | 13 kts | 236° |
| 2026-04-30 10:29 | 2.73674 | 101.68183 | 40 ft | 12 kts | 143° |
| 2026-04-30 10:30 | 2.73611 | 101.68226 | 40 ft | 10 kts | 146° |
| 2026-04-30 10:30 | 2.73557 | 101.68263 | 38 ft | 8 kts | 146° |
| 2026-04-30 10:30 | 2.73514 | 101.68292 | 40 ft | 7 kts | 146° |
| 2026-04-30 10:30 | 2.73470 | 101.68322 | 40 ft | 11 kts | 146° |
| 2026-04-30 10:31 | 2.73381 | 101.68382 | 40 ft | 20 kts | 146° |
| 2026-04-30 10:31 | 2.73259 | 101.68464 | 40 ft | 22 kts | 146° |
| 2026-04-30 10:31 | 2.73131 | 101.68549 | 40 ft | 22 kts | 146° |
| 2026-04-30 10:31 | 2.73000 | 101.68638 | 40 ft | 23 kts | 147° |
| 2026-04-30 10:32 | 2.72863 | 101.68731 | 40 ft | 24 kts | 145° |
| 2026-04-30 10:32 | 2.72722 | 101.68825 | 38 ft | 25 kts | 146° |
| 2026-04-30 10:32 | 2.72575 | 101.68925 | 40 ft | 26 kts | 146° |
| 2026-04-30 10:32 | 2.72423 | 101.69027 | 40 ft | 27 kts | 146° |
| 2026-04-30 10:33 | 2.72266 | 101.69131 | 40 ft | 27 kts | 146° |
| 2026-04-30 10:33 | 2.72111 | 101.69236 | 40 ft | 26 kts | 146° |
| 2026-04-30 10:33 | 2.71973 | 101.69329 | 40 ft | 22 kts | 146° |
| 2026-04-30 10:33 | 2.71872 | 101.69397 | 40 ft | 14 kts | 149° |
| 2026-04-30 10:34 | 2.71803 | 101.69363 | 40 ft | 12 kts | 236° |
| 2026-04-30 10:34 | 2.71756 | 101.69293 | 39 ft | 12 kts | 237° |
| 2026-04-30 10:34 | 2.71763 | 101.69221 | 37 ft | 10 kts | 298° |
| 2026-04-30 10:34 | 2.71797 | 101.69160 | 38 ft | 10 kts | 298° |
| 2026-04-30 10:35 | 2.71824 | 101.69105 | 39 ft | 8 kts | 296° |
| 2026-04-30 10:35 | 2.71858 | 101.69069 | 39 ft | 6 kts | 325° |
| 2026-04-30 10:35 | 2.71941 | 101.69012 | 39 ft | 40 kts | 326° |
| 2026-04-30 10:35 | 2.72373 | 101.68720 | 37 ft | 107 kts | 326° |
| 2026-04-30 10:36 | 2.73129 | 101.68213 | 38 ft | 156 kts | 326° |
| 2026-04-30 10:36 | 2.74112 | 101.67558 | 408 ft | 169 kts | 326° |
| 2026-04-30 10:36 | 2.75098 | 101.66906 | 996 ft | 171 kts | 325° |
| 2026-04-30 10:36 | 2.76015 | 101.66131 | 1519 ft | 180 kts | 299° |
| 2026-04-30 10:37 | 2.76270 | 101.64862 | 1747 ft | 200 kts | 268° |
| 2026-04-30 10:37 | 2.76246 | 101.63562 | 1889 ft | 222 kts | 269° |
| 2026-04-30 10:37 | 2.76242 | 101.61945 | 2247 ft | 240 kts | 270° |
| 2026-04-30 10:37 | 2.76252 | 101.60252 | 2914 ft | 246 kts | 270° |
| 2026-04-30 10:38 | 2.76211 | 101.58522 | 3519 ft | 255 kts | 261° |
| 2026-04-30 10:38 | 2.75401 | 101.56890 | 3929 ft | 273 kts | 223° |
| 2026-04-30 10:38 | 2.73737 | 101.55989 | 4576 ft | 278 kts | 188° |
| 2026-04-30 10:38 | 2.71811 | 101.56027 | 5277 ft | 279 kts | 164° |
| 2026-04-30 10:39 | 2.70142 | 101.56961 | 5978 ft | 278 kts | 130° |
| 2026-04-30 10:39 | 2.69112 | 101.58585 | 6677 ft | 278 kts | 110° |
| 2026-04-30 10:39 | 2.68634 | 101.60454 | 7379 ft | 279 kts | 93° |
| 2026-04-30 10:39 | 2.68718 | 101.62394 | 8102 ft | 280 kts | 83° |
| 2026-04-30 10:40 | 2.68939 | 101.64338 | 8827 ft | 283 kts | 78° |
| 2026-04-30 10:40 | 2.69476 | 101.65877 | 9429 ft | 285 kts | 61° |
| 2026-04-30 10:40 | 2.70719 | 101.67426 | 10073 ft | 289 kts | 40° |
| 2026-04-30 10:40 | 2.72465 | 101.68455 | 10392 ft | 308 kts | 20° |
| 2026-04-30 10:41 | 2.74619 | 101.69033 | 10513 ft | 331 kts | 15° |
| 2026-04-30 10:41 | 2.76929 | 101.69600 | 10647 ft | 351 kts | 15° |
| 2026-04-30 10:41 | 2.79340 | 101.70188 | 11045 ft | 360 kts | 15° |
| 2026-04-30 10:41 | 2.81792 | 101.70790 | 11591 ft | 364 kts | 15° |
| 2026-04-30 10:42 | 2.84267 | 101.71403 | 12163 ft | 368 kts | 15° |
| 2026-04-30 10:42 | 2.86762 | 101.72030 | 12738 ft | 371 kts | 16° |
| 2026-04-30 10:42 | 2.89277 | 101.72668 | 13301 ft | 375 kts | 16° |
| 2026-04-30 10:42 | 2.91821 | 101.73313 | 13826 ft | 378 kts | 15° |
| 2026-04-30 10:43 | 2.94377 | 101.73957 | 14310 ft | 382 kts | 15° |
| 2026-04-30 10:43 | 2.96969 | 101.74610 | 14783 ft | 385 kts | 15° |
| 2026-04-30 10:43 | 2.99581 | 101.75269 | 15248 ft | 388 kts | 15° |
| 2026-04-30 10:43 | 3.02215 | 101.75933 | 15706 ft | 392 kts | 15° |
| 2026-04-30 10:44 | 3.04832 | 101.76591 | 16158 ft | 395 kts | 15° |
| 2026-04-30 10:44 | 3.07509 | 101.77262 | 16613 ft | 398 kts | 15° |
| 2026-04-30 10:44 | 3.10202 | 101.77938 | 17047 ft | 401 kts | 15° |
| 2026-04-30 10:44 | 3.12908 | 101.78672 | 17471 ft | 403 kts | 21° |
| 2026-04-30 10:45 | 3.15454 | 101.79842 | 17883 ft | 404 kts | 32° |
| 2026-04-30 10:45 | 3.17723 | 101.81501 | 18260 ft | 405 kts | 44° |
| 2026-04-30 10:45 | 3.19623 | 101.83584 | 18634 ft | 405 kts | 55° |
| 2026-04-30 10:45 | 3.21202 | 101.85906 | 19012 ft | 407 kts | 57° |
| 2026-04-30 10:46 | 3.22797 | 101.88272 | 19389 ft | 409 kts | 57° |
| 2026-04-30 10:46 | 3.24263 | 101.90716 | 19743 ft | 411 kts | 66° |
| 2026-04-30 10:46 | 3.25222 | 101.93405 | 20093 ft | 411 kts | 77° |
| 2026-04-30 10:46 | 3.25597 | 101.96247 | 20450 ft | 413 kts | 89° |
| 2026-04-30 10:47 | 3.25385 | 101.99112 | 20800 ft | 414 kts | 101° |
| 2026-04-30 10:47 | 3.24713 | 102.01918 | 21137 ft | 416 kts | 104° |
| 2026-04-30 10:47 | 3.23994 | 102.04731 | 21501 ft | 418 kts | 104° |
| 2026-04-30 10:47 | 3.23268 | 102.07556 | 21849 ft | 420 kts | 104° |
| 2026-04-30 10:48 | 3.22537 | 102.10397 | 22178 ft | 422 kts | 104° |
| 2026-04-30 10:48 | 3.21805 | 102.13250 | 22520 ft | 424 kts | 104° |
| 2026-04-30 10:48 | 3.21070 | 102.16116 | 22841 ft | 427 kts | 104° |
| 2026-04-30 10:48 | 3.20330 | 102.18998 | 23167 ft | 429 kts | 104° |
| 2026-04-30 10:49 | 3.19588 | 102.21892 | 23467 ft | 430 kts | 104° |
| 2026-04-30 10:49 | 3.18844 | 102.24801 | 23718 ft | 432 kts | 104° |
| 2026-04-30 10:49 | 3.18099 | 102.27716 | 23970 ft | 434 kts | 104° |
| 2026-04-30 10:49 | 3.17347 | 102.30654 | 24215 ft | 436 kts | 104° |
| 2026-04-30 10:50 | 3.16781 | 102.33636 | 24441 ft | 437 kts | 95° |
| 2026-04-30 10:50 | 3.16733 | 102.36679 | 24688 ft | 439 kts | 86° |
| 2026-04-30 10:50 | 3.17196 | 102.39700 | 24918 ft | 441 kts | 78° |
| 2026-04-30 10:50 | 3.17842 | 102.42713 | 25158 ft | 443 kts | 78° |
| 2026-04-30 10:51 | 3.18483 | 102.45728 | 25396 ft | 445 kts | 78° |
| 2026-04-30 10:51 | 3.19116 | 102.48724 | 25626 ft | 446 kts | 78° |
| 2026-04-30 10:51 | 3.19757 | 102.51758 | 25866 ft | 448 kts | 78° |
| 2026-04-30 10:51 | 3.20404 | 102.54825 | 26107 ft | 450 kts | 78° |
| 2026-04-30 10:52 | 3.21051 | 102.57896 | 26339 ft | 452 kts | 78° |
| 2026-04-30 10:52 | 3.21698 | 102.60975 | 26558 ft | 453 kts | 78° |
| 2026-04-30 10:52 | 3.22350 | 102.64073 | 26775 ft | 455 kts | 78° |
| 2026-04-30 10:52 | 3.23004 | 102.67174 | 26991 ft | 457 kts | 78° |
| 2026-04-30 10:53 | 3.23664 | 102.70293 | 27202 ft | 458 kts | 78° |
| 2026-04-30 10:53 | 3.24323 | 102.73415 | 27406 ft | 460 kts | 78° |
| 2026-04-30 10:53 | 3.24988 | 102.76560 | 27616 ft | 462 kts | 78° |
| 2026-04-30 10:53 | 3.25658 | 102.79710 | 27820 ft | 463 kts | 78° |
| 2026-04-30 10:54 | 3.26326 | 102.82864 | 28028 ft | 465 kts | 78° |
| 2026-04-30 10:54 | 3.26996 | 102.86036 | 28222 ft | 467 kts | 78° |
| 2026-04-30 10:54 | 3.27662 | 102.89218 | 28417 ft | 468 kts | 78° |
| 2026-04-30 10:54 | 3.28330 | 102.92411 | 28627 ft | 469 kts | 78° |
| 2026-04-30 10:55 | 3.29003 | 102.95611 | 28867 ft | 470 kts | 78° |
| 2026-04-30 10:55 | 3.29678 | 102.98807 | 29178 ft | 469 kts | 78° |
| 2026-04-30 10:55 | 3.30355 | 103.01996 | 29478 ft | 468 kts | 78° |
| 2026-04-30 10:55 | 3.31019 | 103.05134 | 29775 ft | 467 kts | 78° |
| 2026-04-30 10:56 | 3.31689 | 103.08309 | 30038 ft | 467 kts | 78° |
| 2026-04-30 10:56 | 3.32359 | 103.11485 | 30284 ft | 466 kts | 78° |
| 2026-04-30 10:56 | 3.33026 | 103.14654 | 30542 ft | 465 kts | 78° |
| 2026-04-30 10:56 | 3.33692 | 103.17821 | 30804 ft | 464 kts | 78° |
| 2026-04-30 10:57 | 3.34356 | 103.20978 | 31071 ft | 463 kts | 78° |
| 2026-04-30 10:57 | 3.35018 | 103.24130 | 31334 ft | 463 kts | 78° |
| 2026-04-30 10:57 | 3.35676 | 103.27279 | 31601 ft | 462 kts | 78° |
| 2026-04-30 10:57 | 3.36334 | 103.30425 | 31871 ft | 461 kts | 78° |
| 2026-04-30 10:58 | 3.36994 | 103.33565 | 32144 ft | 460 kts | 78° |
| 2026-04-30 10:58 | 3.37654 | 103.36691 | 32415 ft | 459 kts | 78° |
| 2026-04-30 10:58 | 3.38315 | 103.39819 | 32673 ft | 459 kts | 78° |
| 2026-04-30 10:58 | 3.38819 | 103.42967 | 32927 ft | 458 kts | 85° |
| 2026-04-30 10:59 | 3.38968 | 103.46156 | 33190 ft | 458 kts | 87° |
| 2026-04-30 10:59 | 3.39097 | 103.49341 | 33454 ft | 457 kts | 87° |
| 2026-04-30 10:59 | 3.39227 | 103.52516 | 33717 ft | 457 kts | 87° |
| 2026-04-30 10:59 | 3.39357 | 103.55691 | 33975 ft | 456 kts | 87° |
| 2026-04-30 11:00 | 3.39489 | 103.58863 | 34212 ft | 456 kts | 87° |
| 2026-04-30 11:00 | 3.39622 | 103.62030 | 34439 ft | 455 kts | 87° |
| 2026-04-30 11:00 | 3.39755 | 103.65189 | 34667 ft | 455 kts | 87° |
| 2026-04-30 11:00 | 3.39884 | 103.68319 | 34810 ft | 455 kts | 87° |
| 2026-04-30 11:01 | 3.40140 | 103.74682 | 34858 ft | 454 kts | 87° |
| 2026-04-30 11:01 | 3.40400 | 103.80962 | 34861 ft | 454 kts | 87° |
| 2026-04-30 11:02 | 3.40663 | 103.87278 | 34867 ft | 454 kts | 87° |
| 2026-04-30 11:02 | 3.40923 | 103.93597 | 34868 ft | 455 kts | 87° |
| 2026-04-30 11:03 | 3.41216 | 103.99924 | 34873 ft | 455 kts | 86° |
| 2026-04-30 11:04 | 3.41706 | 104.09406 | 34872 ft | 455 kts | 86° |
| 2026-04-30 11:04 | 3.42027 | 104.15727 | 34880 ft | 455 kts | 86° |
| 2026-04-30 11:05 | 3.42345 | 104.22049 | 34887 ft | 455 kts | 86° |
| 2026-04-30 11:05 | 3.42666 | 104.28363 | 34882 ft | 454 kts | 86° |
| 2026-04-30 11:06 | 3.42930 | 104.33613 | 34878 ft | 454 kts | 87° |
| 2026-04-30 11:06 | 3.43251 | 104.39921 | 34877 ft | 454 kts | 87° |
| 2026-04-30 11:07 | 3.43574 | 104.46238 | 34877 ft | 454 kts | 87° |
| 2026-04-30 11:07 | 3.43892 | 104.52542 | 34879 ft | 453 kts | 87° |
| 2026-04-30 11:08 | 3.44210 | 104.58844 | 34879 ft | 453 kts | 87° |
| 2026-04-30 11:08 | 3.44532 | 104.65143 | 34880 ft | 453 kts | 87° |
| 2026-04-30 11:09 | 3.44859 | 104.71448 | 34878 ft | 453 kts | 87° |
| 2026-04-30 11:09 | 3.45183 | 104.77740 | 34880 ft | 453 kts | 87° |
| 2026-04-30 11:10 | 3.45507 | 104.83992 | 34879 ft | 453 kts | 87° |
| 2026-04-30 11:10 | 3.45820 | 104.90283 | 34878 ft | 452 kts | 87° |
| 2026-04-30 11:11 | 3.46139 | 104.96566 | 34874 ft | 452 kts | 87° |
| 2026-04-30 11:11 | 3.46464 | 105.02857 | 34877 ft | 453 kts | 87° |
| 2026-04-30 11:12 | 3.46784 | 105.09148 | 34876 ft | 453 kts | 87° |
| 2026-04-30 11:12 | 3.47107 | 105.15442 | 34878 ft | 453 kts | 87° |
| 2026-04-30 11:13 | 3.47430 | 105.21738 | 34874 ft | 453 kts | 87° |
| 2026-04-30 11:13 | 3.47744 | 105.28039 | 34881 ft | 453 kts | 87° |
| 2026-04-30 11:14 | 3.48061 | 105.34337 | 34880 ft | 453 kts | 87° |
| 2026-04-30 11:14 | 3.48379 | 105.40646 | 34881 ft | 453 kts | 87° |
| 2026-04-30 11:15 | 3.48694 | 105.46953 | 34881 ft | 453 kts | 87° |
| 2026-04-30 11:15 | 3.49013 | 105.53215 | 34881 ft | 453 kts | 87° |
| 2026-04-30 11:16 | 3.49336 | 105.59516 | 34880 ft | 453 kts | 87° |
| 2026-04-30 11:16 | 3.49662 | 105.65822 | 34882 ft | 454 kts | 87° |
| 2026-04-30 11:17 | 3.49979 | 105.72132 | 34874 ft | 453 kts | 87° |
| 2026-04-30 11:17 | 3.50295 | 105.78436 | 34881 ft | 453 kts | 87° |
| 2026-04-30 11:18 | 3.50604 | 105.84744 | 34881 ft | 454 kts | 87° |
| 2026-04-30 11:18 | 3.51087 | 105.94207 | 34879 ft | 454 kts | 87° |
| 2026-04-30 11:19 | 3.51412 | 106.00514 | 34879 ft | 454 kts | 87° |
| 2026-04-30 11:19 | 3.51737 | 106.06827 | 34876 ft | 454 kts | 87° |
| 2026-04-30 11:20 | 3.52055 | 106.13136 | 34881 ft | 454 kts | 87° |
| 2026-04-30 11:20 | 3.52371 | 106.19445 | 34882 ft | 454 kts | 87° |
| 2026-04-30 11:21 | 3.52700 | 106.25754 | 34878 ft | 454 kts | 87° |
| 2026-04-30 11:21 | 3.53024 | 106.32022 | 34881 ft | 454 kts | 87° |
| 2026-04-30 11:22 | 3.53335 | 106.38334 | 34874 ft | 454 kts | 87° |
| 2026-04-30 11:22 | 3.53661 | 106.44638 | 34882 ft | 453 kts | 87° |
| 2026-04-30 11:23 | 3.53993 | 106.50938 | 34879 ft | 453 kts | 87° |
| 2026-04-30 11:24 | 3.54489 | 106.60386 | 34869 ft | 453 kts | 87° |
| 2026-04-30 11:24 | 3.54813 | 106.66683 | 34877 ft | 453 kts | 87° |
| 2026-04-30 11:25 | 3.55295 | 106.76126 | 34873 ft | 453 kts | 87° |
| 2026-04-30 11:26 | 3.55936 | 106.88666 | 34880 ft | 452 kts | 87° |
| 2026-04-30 11:26 | 3.56731 | 106.94899 | 34877 ft | 453 kts | 76° |
| 2026-04-30 11:27 | 3.58348 | 107.00993 | 34878 ft | 453 kts | 76° |
| 2026-04-30 11:27 | 3.59948 | 107.07093 | 34877 ft | 453 kts | 76° |
| 2026-04-30 11:28 | 3.62339 | 107.16254 | 34880 ft | 453 kts | 76° |
| 2026-04-30 11:29 | 3.63944 | 107.22360 | 34882 ft | 454 kts | 76° |
| 2026-04-30 11:29 | 3.66350 | 107.31522 | 34883 ft | 454 kts | 76° |
| 2026-04-30 11:30 | 3.68751 | 107.40685 | 34881 ft | 454 kts | 76° |
| 2026-04-30 11:31 | 3.70355 | 107.46803 | 34873 ft | 454 kts | 76° |
| 2026-04-30 11:31 | 3.71954 | 107.52922 | 34879 ft | 454 kts | 76° |
| 2026-04-30 11:32 | 3.73562 | 107.59040 | 34880 ft | 455 kts | 76° |
| 2026-04-30 11:32 | 3.75166 | 107.65169 | 34877 ft | 455 kts | 76° |
| 2026-04-30 11:33 | 3.77557 | 107.74321 | 34877 ft | 455 kts | 76° |
| 2026-04-30 11:33 | 3.79158 | 107.80446 | 34883 ft | 455 kts | 76° |
| 2026-04-30 11:34 | 3.80756 | 107.86579 | 34882 ft | 455 kts | 76° |
| 2026-04-30 11:34 | 3.82360 | 107.92714 | 34882 ft | 455 kts | 76° |
| 2026-04-30 11:35 | 3.83962 | 107.98851 | 34879 ft | 456 kts | 76° |
| 2026-04-30 11:35 | 3.85567 | 108.04985 | 34884 ft | 456 kts | 76° |
| 2026-04-30 11:36 | 3.87166 | 108.11126 | 34886 ft | 456 kts | 76° |
| 2026-04-30 11:36 | 3.88772 | 108.17273 | 34883 ft | 456 kts | 76° |
| 2026-04-30 11:37 | 3.90375 | 108.23407 | 34885 ft | 455 kts | 76° |
| 2026-04-30 11:37 | 3.91969 | 108.29545 | 34884 ft | 455 kts | 76° |
| 2026-04-30 11:38 | 3.93566 | 108.35686 | 34886 ft | 455 kts | 76° |
| 2026-04-30 11:38 | 3.95170 | 108.41817 | 34888 ft | 455 kts | 76° |
| 2026-04-30 11:39 | 3.96763 | 108.47916 | 34877 ft | 455 kts | 76° |
| 2026-04-30 11:39 | 3.98358 | 108.54049 | 34878 ft | 455 kts | 76° |
| 2026-04-30 11:40 | 3.99952 | 108.60189 | 34879 ft | 455 kts | 76° |
| 2026-04-30 11:40 | 4.01552 | 108.66332 | 34882 ft | 455 kts | 76° |
| 2026-04-30 11:41 | 4.03150 | 108.72469 | 34883 ft | 455 kts | 76° |
| 2026-04-30 11:41 | 4.04759 | 108.78607 | 34882 ft | 455 kts | 76° |
| 2026-04-30 11:42 | 4.06365 | 108.84740 | 34883 ft | 455 kts | 76° |
| 2026-04-30 11:42 | 4.07973 | 108.90879 | 34887 ft | 456 kts | 76° |
| 2026-04-30 11:43 | 4.09583 | 108.97016 | 34882 ft | 455 kts | 76° |
| 2026-04-30 11:43 | 4.11198 | 109.03153 | 34885 ft | 456 kts | 76° |
| 2026-04-30 11:44 | 4.12795 | 109.09252 | 34878 ft | 455 kts | 76° |
| 2026-04-30 11:44 | 4.14395 | 109.15389 | 34885 ft | 455 kts | 76° |
| 2026-04-30 11:45 | 4.15997 | 109.21525 | 34878 ft | 455 kts | 76° |
| 2026-04-30 11:45 | 4.17607 | 109.27663 | 34880 ft | 455 kts | 76° |
| 2026-04-30 11:46 | 4.19214 | 109.33799 | 34884 ft | 455 kts | 76° |
| 2026-04-30 11:46 | 4.20814 | 109.39924 | 34887 ft | 454 kts | 76° |
| 2026-04-30 11:47 | 4.22411 | 109.46050 | 34887 ft | 454 kts | 76° |
| 2026-04-30 11:47 | 4.23999 | 109.52128 | 34881 ft | 454 kts | 76° |
| 2026-04-30 11:48 | 4.25592 | 109.58239 | 34881 ft | 453 kts | 76° |
| 2026-04-30 11:48 | 4.27176 | 109.64354 | 34885 ft | 453 kts | 76° |
| 2026-04-30 11:49 | 4.28741 | 109.70468 | 34879 ft | 453 kts | 76° |
| 2026-04-30 11:49 | 4.30304 | 109.76582 | 34887 ft | 453 kts | 76° |
| 2026-04-30 11:50 | 4.31874 | 109.82688 | 34886 ft | 452 kts | 76° |
| 2026-04-30 11:50 | 4.33439 | 109.88789 | 34882 ft | 452 kts | 76° |
| 2026-04-30 11:51 | 4.34998 | 109.94891 | 34884 ft | 451 kts | 76° |
| 2026-04-30 11:51 | 4.36550 | 110.00984 | 34884 ft | 451 kts | 76° |
| 2026-04-30 11:52 | 4.38115 | 110.07073 | 34887 ft | 451 kts | 76° |
| 2026-04-30 11:52 | 4.39672 | 110.13123 | 34882 ft | 451 kts | 76° |
| 2026-04-30 11:53 | 4.41239 | 110.19218 | 34879 ft | 451 kts | 76° |
| 2026-04-30 11:53 | 4.42537 | 110.24280 | 34884 ft | 451 kts | 76° |
| 2026-04-30 11:54 | 4.44359 | 110.31396 | 34879 ft | 451 kts | 76° |
| 2026-04-30 11:54 | 4.45912 | 110.37478 | 34876 ft | 450 kts | 76° |
| 2026-04-30 11:55 | 4.47204 | 110.42535 | 34882 ft | 450 kts | 76° |
| 2026-04-30 11:55 | 4.48758 | 110.48620 | 34886 ft | 450 kts | 76° |
| 2026-04-30 11:56 | 4.50565 | 110.55680 | 34878 ft | 450 kts | 76° |
| 2026-04-30 11:56 | 4.51871 | 110.60763 | 34886 ft | 450 kts | 76° |
| 2026-04-30 11:57 | 4.53421 | 110.66835 | 34885 ft | 449 kts | 76° |
| 2026-04-30 11:57 | 4.54964 | 110.72895 | 34888 ft | 449 kts | 76° |
| 2026-04-30 11:58 | 4.56496 | 110.78928 | 34879 ft | 449 kts | 76° |
| 2026-04-30 11:58 | 4.58053 | 110.84995 | 34887 ft | 449 kts | 76° |
| 2026-04-30 11:59 | 4.59606 | 110.91060 | 34885 ft | 449 kts | 76° |
| 2026-04-30 11:59 | 4.61152 | 110.97127 | 34886 ft | 449 kts | 76° |
| 2026-04-30 12:00 | 4.62696 | 111.03193 | 34886 ft | 449 kts | 76° |
| 2026-04-30 12:00 | 4.64237 | 111.09261 | 34888 ft | 449 kts | 76° |
| 2026-04-30 12:01 | 4.65782 | 111.15330 | 34880 ft | 449 kts | 76° |
| 2026-04-30 12:01 | 4.67331 | 111.21408 | 34887 ft | 449 kts | 76° |
| 2026-04-30 12:02 | 4.68878 | 111.27485 | 34884 ft | 449 kts | 76° |
| 2026-04-30 12:02 | 4.70408 | 111.33523 | 34882 ft | 450 kts | 76° |
| 2026-04-30 12:03 | 4.72726 | 111.42632 | 34883 ft | 450 kts | 76° |
| 2026-04-30 12:04 | 4.74271 | 111.48706 | 34891 ft | 450 kts | 76° |
| 2026-04-30 12:04 | 4.75814 | 111.54781 | 34890 ft | 450 kts | 76° |
| 2026-04-30 12:05 | 4.77351 | 111.60856 | 34891 ft | 450 kts | 76° |
| 2026-04-30 12:05 | 4.78899 | 111.66939 | 34880 ft | 450 kts | 76° |
| 2026-04-30 12:06 | 4.80444 | 111.73017 | 34884 ft | 450 kts | 76° |
| 2026-04-30 12:06 | 4.81989 | 111.79099 | 34890 ft | 450 kts | 76° |
| 2026-04-30 12:07 | 4.83519 | 111.85140 | 34878 ft | 450 kts | 76° |
| 2026-04-30 12:07 | 4.85081 | 111.91219 | 34883 ft | 450 kts | 76° |
| 2026-04-30 12:08 | 4.86662 | 111.97289 | 34881 ft | 450 kts | 76° |
| 2026-04-30 12:08 | 4.88249 | 112.03359 | 34880 ft | 450 kts | 76° |
| 2026-04-30 12:09 | 4.89822 | 112.09434 | 34884 ft | 450 kts | 76° |
| 2026-04-30 12:09 | 4.91389 | 112.15505 | 34885 ft | 450 kts | 76° |
| 2026-04-30 12:10 | 4.92963 | 112.21577 | 34878 ft | 450 kts | 76° |
| 2026-04-30 12:10 | 4.94540 | 112.27652 | 34883 ft | 450 kts | 76° |
| 2026-04-30 12:11 | 4.96117 | 112.33727 | 34876 ft | 450 kts | 76° |
| 2026-04-30 12:11 | 4.97686 | 112.39800 | 34875 ft | 450 kts | 76° |
| 2026-04-30 12:12 | 4.99256 | 112.45885 | 34880 ft | 450 kts | 76° |
| 2026-04-30 12:12 | 5.00816 | 112.51928 | 34884 ft | 450 kts | 76° |
| 2026-04-30 12:13 | 5.02387 | 112.58010 | 34891 ft | 450 kts | 76° |
| 2026-04-30 12:13 | 5.03952 | 112.64093 | 34882 ft | 450 kts | 76° |
| 2026-04-30 12:14 | 5.05520 | 112.70170 | 34879 ft | 450 kts | 76° |
| 2026-04-30 12:14 | 5.07092 | 112.76247 | 34882 ft | 450 kts | 76° |
| 2026-04-30 12:15 | 5.08666 | 112.82331 | 34887 ft | 451 kts | 76° |
| 2026-04-30 12:15 | 5.10234 | 112.88420 | 34881 ft | 451 kts | 76° |
| 2026-04-30 12:16 | 5.11802 | 112.94508 | 34888 ft | 451 kts | 76° |
| 2026-04-30 12:16 | 5.13373 | 113.00593 | 34886 ft | 451 kts | 76° |
| 2026-04-30 12:17 | 5.15737 | 113.09727 | 34889 ft | 451 kts | 76° |
| 2026-04-30 12:17 | 5.17300 | 113.15815 | 34883 ft | 451 kts | 76° |
| 2026-04-30 12:18 | 5.18865 | 113.21902 | 34881 ft | 451 kts | 76° |
| 2026-04-30 12:18 | 5.20433 | 113.27989 | 34882 ft | 451 kts | 76° |
| 2026-04-30 12:19 | 5.21984 | 113.34045 | 34889 ft | 451 kts | 76° |
| 2026-04-30 12:19 | 5.23542 | 113.40132 | 34893 ft | 451 kts | 76° |
| 2026-04-30 12:20 | 5.25109 | 113.46225 | 34888 ft | 451 kts | 76° |
| 2026-04-30 12:20 | 5.26672 | 113.52320 | 34884 ft | 451 kts | 76° |
| 2026-04-30 12:21 | 5.28238 | 113.58404 | 34892 ft | 451 kts | 76° |
| 2026-04-30 12:21 | 5.29806 | 113.64496 | 34876 ft | 451 kts | 76° |
| 2026-04-30 12:22 | 5.31366 | 113.70584 | 34879 ft | 451 kts | 76° |
| 2026-04-30 12:22 | 5.32927 | 113.76670 | 34888 ft | 451 kts | 76° |
| 2026-04-30 12:23 | 5.34484 | 113.82767 | 34888 ft | 451 kts | 76° |
| 2026-04-30 12:23 | 5.36032 | 113.88856 | 34889 ft | 451 kts | 76° |
| 2026-04-30 12:24 | 5.37592 | 113.94949 | 34889 ft | 451 kts | 76° |
| 2026-04-30 12:24 | 5.39150 | 114.00999 | 34892 ft | 451 kts | 76° |
| 2026-04-30 12:25 | 5.40723 | 114.07130 | 34884 ft | 451 kts | 76° |
| 2026-04-30 12:25 | 5.42267 | 114.13181 | 34894 ft | 451 kts | 76° |
| 2026-04-30 12:26 | 5.43821 | 114.19284 | 34889 ft | 451 kts | 76° |
| 2026-04-30 12:26 | 5.45365 | 114.25385 | 34889 ft | 451 kts | 76° |
| 2026-04-30 12:27 | 5.46916 | 114.31491 | 34893 ft | 451 kts | 76° |
| 2026-04-30 12:27 | 5.48464 | 114.37587 | 34895 ft | 451 kts | 76° |
| 2026-04-30 12:28 | 5.50017 | 114.43682 | 34893 ft | 451 kts | 76° |
| 2026-04-30 12:28 | 5.51568 | 114.49780 | 34896 ft | 451 kts | 77° |
| 2026-04-30 12:29 | 5.53110 | 114.55884 | 34893 ft | 451 kts | 77° |
| 2026-04-30 12:29 | 5.54656 | 114.61989 | 34896 ft | 451 kts | 76° |
| 2026-04-30 12:30 | 5.56211 | 114.68097 | 34896 ft | 451 kts | 77° |
| 2026-04-30 12:30 | 5.57758 | 114.74203 | 34894 ft | 451 kts | 77° |
| 2026-04-30 12:31 | 5.59299 | 114.80312 | 34893 ft | 452 kts | 77° |
| 2026-04-30 12:31 | 5.60059 | 114.83326 | 34587 ft | 451 kts | 77° |
| 2026-04-30 12:31 | 5.60831 | 114.86380 | 33875 ft | 452 kts | 77° |
| 2026-04-30 12:32 | 5.61606 | 114.89448 | 33068 ft | 454 kts | 77° |
| 2026-04-30 12:32 | 5.62385 | 114.92524 | 32224 ft | 453 kts | 76° |
| 2026-04-30 12:32 | 5.63161 | 114.95595 | 31107 ft | 455 kts | 76° |
| 2026-04-30 12:32 | 5.63943 | 114.98686 | 29960 ft | 458 kts | 76° |
| 2026-04-30 12:33 | 5.64731 | 115.01798 | 28604 ft | 460 kts | 76° |
| 2026-04-30 12:33 | 5.65516 | 115.04902 | 27626 ft | 455 kts | 76° |
| 2026-04-30 12:33 | 5.66286 | 115.07960 | 26748 ft | 447 kts | 76° |
| 2026-04-30 12:33 | 5.67043 | 115.10960 | 25894 ft | 440 kts | 76° |
| 2026-04-30 12:34 | 5.67790 | 115.13909 | 24967 ft | 431 kts | 76° |
| 2026-04-30 12:34 | 5.68523 | 115.16810 | 23996 ft | 424 kts | 76° |
| 2026-04-30 12:34 | 5.69288 | 115.19641 | 22965 ft | 417 kts | 75° |
| 2026-04-30 12:34 | 5.70100 | 115.22408 | 21881 ft | 411 kts | 74° |
| 2026-04-30 12:35 | 5.70938 | 115.25135 | 20845 ft | 405 kts | 73° |
| 2026-04-30 12:35 | 5.71774 | 115.27813 | 19846 ft | 399 kts | 73° |
| 2026-04-30 12:35 | 5.72596 | 115.30459 | 18884 ft | 394 kts | 73° |
| 2026-04-30 12:35 | 5.73395 | 115.33078 | 17916 ft | 390 kts | 74° |
| 2026-04-30 12:36 | 5.74167 | 115.35648 | 17119 ft | 390 kts | 73° |
| 2026-04-30 12:36 | 5.75126 | 115.38179 | 16611 ft | 386 kts | 64° |
| 2026-04-30 12:36 | 5.76511 | 115.40475 | 16107 ft | 384 kts | 54° |
| 2026-04-30 12:36 | 5.78133 | 115.42595 | 15597 ft | 381 kts | 53° |
| 2026-04-30 12:37 | 5.79745 | 115.44693 | 15112 ft | 378 kts | 53° |
| 2026-04-30 12:37 | 5.81349 | 115.46775 | 14635 ft | 375 kts | 53° |
| 2026-04-30 12:37 | 5.82942 | 115.48842 | 14159 ft | 372 kts | 52° |
| 2026-04-30 12:37 | 5.84516 | 115.50890 | 13701 ft | 369 kts | 52° |
| 2026-04-30 12:38 | 5.86079 | 115.52929 | 13184 ft | 366 kts | 52° |
| 2026-04-30 12:38 | 5.87622 | 115.54945 | 12671 ft | 363 kts | 53° |
| 2026-04-30 12:38 | 5.89160 | 115.56950 | 12160 ft | 360 kts | 53° |
| 2026-04-30 12:38 | 5.90663 | 115.58910 | 11658 ft | 357 kts | 53° |
| 2026-04-30 12:39 | 5.92167 | 115.60875 | 11143 ft | 354 kts | 53° |
| 2026-04-30 12:39 | 5.93663 | 115.62828 | 10630 ft | 351 kts | 53° |
| 2026-04-30 12:39 | 5.95148 | 115.64765 | 10102 ft | 348 kts | 53° |
| 2026-04-30 12:39 | 5.96619 | 115.66681 | 9738 ft | 341 kts | 53° |
| 2026-04-30 12:40 | 5.98035 | 115.68527 | 9618 ft | 326 kts | 53° |
| 2026-04-30 12:40 | 5.99390 | 115.70295 | 9480 ft | 313 kts | 53° |
| 2026-04-30 12:40 | 6.00692 | 115.71995 | 9362 ft | 301 kts | 53° |
| 2026-04-30 12:40 | 6.01945 | 115.73633 | 9216 ft | 290 kts | 53° |
| 2026-04-30 12:41 | 6.03152 | 115.75213 | 9049 ft | 281 kts | 53° |
| 2026-04-30 12:41 | 6.03939 | 115.76242 | 8842 ft | 279 kts | 53° |
| 2026-04-30 12:41 | 6.05119 | 115.77784 | 8491 ft | 277 kts | 53° |
| 2026-04-30 12:41 | 6.06683 | 115.79830 | 8013 ft | 275 kts | 53° |
| 2026-04-30 12:42 | 6.07845 | 115.81352 | 7652 ft | 274 kts | 53° |
| 2026-04-30 12:42 | 6.08613 | 115.82356 | 7408 ft | 273 kts | 53° |
| 2026-04-30 12:42 | 6.09766 | 115.83862 | 7059 ft | 271 kts | 53° |
| 2026-04-30 12:42 | 6.11235 | 115.85908 | 6580 ft | 269 kts | 61° |
| 2026-04-30 12:43 | 6.11752 | 115.87036 | 6328 ft | 268 kts | 70° |
| 2026-04-30 12:43 | 6.12391 | 115.88790 | 5929 ft | 267 kts | 70° |
| 2026-04-30 12:43 | 6.13032 | 115.90534 | 5533 ft | 266 kts | 70° |
| 2026-04-30 12:43 | 6.13663 | 115.92239 | 5388 ft | 254 kts | 69° |
| 2026-04-30 12:44 | 6.14267 | 115.93866 | 5266 ft | 242 kts | 69° |
| 2026-04-30 12:44 | 6.14840 | 115.95413 | 5143 ft | 231 kts | 69° |
| 2026-04-30 12:44 | 6.15394 | 115.96908 | 4923 ft | 226 kts | 70° |
| 2026-04-30 12:44 | 6.15940 | 115.98383 | 4616 ft | 225 kts | 69° |
| 2026-04-30 12:45 | 6.16483 | 115.99851 | 4327 ft | 223 kts | 69° |
| 2026-04-30 12:45 | 6.17017 | 116.01311 | 4009 ft | 223 kts | 72° |
| 2026-04-30 12:45 | 6.17153 | 116.02838 | 3722 ft | 222 kts | 98° |
| 2026-04-30 12:45 | 6.16663 | 116.04303 | 3474 ft | 220 kts | 110° |
| 2026-04-30 12:46 | 6.16079 | 116.05732 | 3360 ft | 221 kts | 110° |
| 2026-04-30 12:46 | 6.15516 | 116.07117 | 3239 ft | 213 kts | 110° |
| 2026-04-30 12:46 | 6.14966 | 116.08469 | 3120 ft | 206 kts | 110° |
| 2026-04-30 12:46 | 6.14434 | 116.09783 | 2993 ft | 201 kts | 110° |
| 2026-04-30 12:47 | 6.13914 | 116.11069 | 2870 ft | 198 kts | 110° |
| 2026-04-30 12:47 | 6.13206 | 116.12238 | 2739 ft | 201 kts | 139° |
| 2026-04-30 12:47 | 6.11906 | 116.12681 | 2642 ft | 200 kts | 182° |
| 2026-04-30 12:47 | 6.10622 | 116.12246 | 2529 ft | 191 kts | 202° |
| 2026-04-30 12:48 | 6.09424 | 116.11741 | 2423 ft | 183 kts | 200° |
| 2026-04-30 12:48 | 6.08278 | 116.11265 | 2354 ft | 173 kts | 200° |
| 2026-04-30 12:48 | 6.07187 | 116.10806 | 2334 ft | 168 kts | 200° |
| 2026-04-30 12:48 | 6.06109 | 116.10353 | 2256 ft | 168 kts | 201° |
| 2026-04-30 12:49 | 6.05036 | 116.09900 | 2095 ft | 166 kts | 201° |
| 2026-04-30 12:49 | 6.03971 | 116.09450 | 1892 ft | 166 kts | 201° |
| 2026-04-30 12:49 | 6.02903 | 116.08999 | 1690 ft | 167 kts | 202° |
| 2026-04-30 12:49 | 6.01841 | 116.08550 | 1470 ft | 164 kts | 202° |
| 2026-04-30 12:50 | 6.00798 | 116.08109 | 1280 ft | 161 kts | 201° |
| 2026-04-30 12:50 | 5.99788 | 116.07683 | 1110 ft | 156 kts | 202° |
| 2026-04-30 12:50 | 5.98796 | 116.07264 | 909 ft | 153 kts | 202° |
| 2026-04-30 12:50 | 5.97829 | 116.06856 | 715 ft | 149 kts | 202° |
| 2026-04-30 12:51 | 5.96893 | 116.06461 | 496 ft | 147 kts | 201° |
| 2026-04-30 12:51 | 5.95963 | 116.06069 | 328 ft | 144 kts | 201° |
| 2026-04-30 12:51 | 5.95046 | 116.05680 | 140 ft | 143 kts | 200° |
| 2026-04-30 12:51 | 5.94153 | 116.05300 | 32 ft | 130 kts | 202° |
| 2026-04-30 12:52 | 5.93455 | 116.05002 | 29 ft | 86 kts | 202° |
| 2026-04-30 12:52 | 5.93023 | 116.04819 | 29 ft | 36 kts | 203° |
| 2026-04-30 12:52 | 5.92793 | 116.04753 | 29 ft | 27 kts | 181° |
| 2026-04-30 12:52 | 5.92614 | 116.04767 | 29 ft | 24 kts | 172° |
| 2026-04-30 12:53 | 5.92474 | 116.04775 | 29 ft | 18 kts | 199° |
| 2026-04-30 12:53 | 5.92406 | 116.04781 | 29 ft | 9 kts | 117° |
| 2026-04-30 12:53 | 5.92391 | 116.04839 | 29 ft | 8 kts | 103° |
| 2026-04-30 12:53 | 5.92381 | 116.04890 | 29 ft | 7 kts | 90° |
| 2026-04-30 12:54 | 5.92396 | 116.04929 | 29 ft | 5 kts | 68° |
| 2026-04-30 12:54 | 5.92405 | 116.04954 | 29 ft | 2 kts | 70° |
| 2026-04-30 12:54 | 5.92407 | 116.04960 | 29 ft | 0 kts | 71° |